Stations météo

réclame
Mon MeteoGroup
Martina Franca, Italie (16318): Température de l'air & dewpoint: 08.08.2018 15:00:00 - 14.08.2018 15:00:00 (CEST)Martina Franca, Italie (16318): Vitesse du vent: 08.08.2018 15:00:00 - 14.08.2018 15:00:00 (CEST)Martina Franca, Italie (16318): Direction du vent: 08.08.2018 15:00:00 - 14.08.2018 15:00:00 (CEST)Martina Franca, Italie (16318): reduced air pressure: 08.08.2018 15:00:00 - 14.08.2018 15:00:00 (CEST)Martina Franca, Italie (16318): Quantités de précipitations: 08.08.2018 15:00:00 - 14.08.2018 15:00:00 (CEST)
Date & Time tt [°C] td [°C] ff [km/h] ff [knt] dd ppp [hPa] rr [mm]
14.08.2018 15:00:00 33,0 16,8 11 6 W 1010,0 -
14.08.2018 14:00:00 33,5 18,1 8 4 WSW 1010,6 0,0
14.08.2018 13:00:00 32,5 17,9 8 4 SW 1011,1 -
14.08.2018 12:00:00 30,4 16,7 5 3 SSW 1011,9 -
14.08.2018 11:00:00 29,9 17,0 5 3 N 1012,2 -
14.08.2018 10:00:00 28,1 17,6 4 2 SW 1012,5 -
14.08.2018 09:00:00 26,5 15,8 2 1 ENE 1013,0 -
14.08.2018 08:00:00 24,0 14,0 15 8 NNE 1013,0 0,0
14.08.2018 07:00:00 22,6 13,6 13 7 N 1013,0 -
14.08.2018 06:00:00 22,1 13,9 11 6 N 1012,7 -
14.08.2018 05:00:00 21,7 15,7 11 6 N 1012,7 -
14.08.2018 04:00:00 21,4 18,7 11 6 N 1013,0 -
14.08.2018 03:00:00 21,0 20,3 8 4 NW 1013,1 -
14.08.2018 02:00:00 20,4 19,5 2 1 NNW 1013,6 0,0
14.08.2018 01:00:00 21,1 20,0 2 1 SSW 1013,8 -
14.08.2018 00:00:00 22,2 21,0 4 2 SSE 1013,7 -
13.08.2018 23:00:00 22,3 20,7 2 1 SSE 1013,7 -
13.08.2018 22:00:00 24,1 22,1 2 1 SSE 1013,6 -
13.08.2018 21:00:00 24,6 22,2 2 1 NE 1013,3 -
13.08.2018 20:00:00 26,1 19,9 5 3 SSW 1012,9 0,0
13.08.2018 19:00:00 28,7 17,8 5 3 S 1012,1 -
13.08.2018 18:00:00 30,2 17,9 8 4 S 1012,1 -
13.08.2018 17:00:00 32,3 19,2 11 6 SSW 1011,9 -
13.08.2018 16:00:00 32,5 15,9 9 5 SSE - -
13.08.2018 15:00:00 32,8 17,4 9 5 E 1012,9 -
13.08.2018 14:00:00 32,7 18,8 9 5 SSW 1013,2 0,0
13.08.2018 13:00:00 31,7 19,7 9 5 S 1014,0 -
13.08.2018 12:00:00 30,8 20,1 8 4 S 1014,3 -
13.08.2018 11:00:00 29,9 20,4 5 3 SSW 1014,8 -
13.08.2018 10:00:00 28,3 20,5 4 2 S 1014,9 -
13.08.2018 09:00:00 26,2 20,5 5 3 S 1014,9 -
13.08.2018 08:00:00 25,3 21,1 2 1 ESE 1014,8 0,0
13.08.2018 07:00:00 21,9 19,2 4 2 NE 1015,2 -
13.08.2018 06:00:00 20,9 17,6 4 2 NNE 1015,5 -
13.08.2018 05:00:00 20,4 18,3 0 0 N 1015,6 -
13.08.2018 04:00:00 20,2 17,5 0 0 N 1016,0 -
13.08.2018 03:00:00 20,5 16,9 2 1 N 1016,3 -
13.08.2018 02:00:00 20,5 15,6 2 1 NNW 1016,7 0,0
13.08.2018 01:00:00 21,0 15,2 2 1 NNW 1016,9 -
13.08.2018 00:00:00 21,5 16,2 0 0 N 1017,2 -
12.08.2018 23:00:00 21,7 16,8 0 0 N 1017,0 -
12.08.2018 22:00:00 22,3 18,0 0 0 N 1016,9 -
12.08.2018 21:00:00 23,5 18,3 2 1 SSW 1016,7 -
12.08.2018 20:00:00 25,2 18,1 0 0 N 1015,9 0,0
12.08.2018 19:00:00 27,5 20,0 0 0 N 1015,6 -
12.08.2018 18:00:00 28,9 19,2 5 3 NE 1015,7 -
12.08.2018 17:00:00 29,4 18,2 5 3 NE 1015,6 -
12.08.2018 16:00:00 29,9 19,8 13 7 NE 1015,6 -
12.08.2018 15:00:00 31,1 20,7 2 1 NNE 1015,7 -
12.08.2018 14:00:00 31,8 19,7 5 3 E 1016,1 0,0
12.08.2018 13:00:00 31,7 17,9 8 4 N 1016,8 -
12.08.2018 12:00:00 30,4 18,8 8 4 NW 1017,1 -
12.08.2018 11:00:00 29,8 18,8 8 4 NNE 1017,2 -
12.08.2018 10:00:00 29,0 19,6 9 5 NNE 1016,9 -
12.08.2018 09:00:00 27,0 21,5 9 5 N 1017,0 -
12.08.2018 08:00:00 24,7 21,4 11 6 N 1017,1 0,0
12.08.2018 07:00:00 22,6 18,3 15 8 NNE 1017,1 -
12.08.2018 06:00:00 22,6 13,6 13 7 NNE 1016,8 -
12.08.2018 05:00:00 22,6 16,1 15 8 N 1016,5 -
12.08.2018 04:00:00 22,3 16,5 13 7 N 1017,0 -
12.08.2018 03:00:00 22,6 16,8 13 7 N 1017,5 -
12.08.2018 02:00:00 21,6 17,5 11 6 N 1017,9 0,0
12.08.2018 01:00:00 22,1 18,4 11 6 NNW 1018,0 -
12.08.2018 00:00:00 22,4 17,9 5 3 N 1018,0 -
11.08.2018 23:00:00 23,9 18,0 11 6 NNE 1017,5 -
11.08.2018 22:00:00 24,0 17,9 11 6 N 1017,7 -
11.08.2018 21:00:00 24,8 17,0 11 6 NNE 1017,4 -
11.08.2018 20:00:00 25,8 17,9 8 4 NNE 1017,0 0,0
11.08.2018 19:00:00 28,1 20,3 2 1 WSW 1016,3 -
11.08.2018 18:00:00 29,8 22,7 5 3 SSW 1016,2 -
11.08.2018 17:00:00 30,9 16,8 5 3 NNE 1016,1 -
11.08.2018 16:00:00 32,7 17,7 9 5 N 1015,7 -
11.08.2018 15:00:00 32,1 17,9 11 6 N 1015,9 -
11.08.2018 14:00:00 33,0 20,2 9 5 N 1016,0 0,0
11.08.2018 13:00:00 32,0 20,9 11 6 W 1016,5 -
11.08.2018 12:00:00 31,6 20,2 9 5 N 1017,2 -
11.08.2018 11:00:00 30,6 20,5 8 4 N 1017,5 -
11.08.2018 10:00:00 29,2 20,3 5 3 SSE 1017,6 -
11.08.2018 09:00:00 26,9 20,4 13 7 N 1017,6 -
11.08.2018 08:00:00 24,5 22,5 13 7 N 1017,8 0,0
11.08.2018 07:00:00 22,5 21,3 13 7 N 1018,1 -
11.08.2018 06:00:00 21,9 20,8 16 9 N 1018,3 -
11.08.2018 05:00:00 21,9 20,7 15 8 N 1018,4 -
11.08.2018 04:00:00 21,8 20,6 13 7 N 1018,9 -
11.08.2018 03:00:00 22,1 20,9 13 7 N 1019,3 -
11.08.2018 02:00:00 22,4 21,0 13 7 NNE 1019,3 0,0
11.08.2018 01:00:00 22,8 19,5 11 6 N 1019,5 -
11.08.2018 00:00:00 22,5 18,2 11 6 N 1019,7 -
10.08.2018 23:00:00 22,9 16,8 9 5 N 1019,7 -
10.08.2018 22:00:00 23,1 16,1 5 3 NNW 1019,8 -
10.08.2018 21:00:00 23,7 15,1 2 1 NW 1019,5 -
10.08.2018 20:00:00 26,2 15,2 5 3 NNE 1018,6 0,0
10.08.2018 19:00:00 29,0 14,4 11 6 NNE 1018,0 -
10.08.2018 18:00:00 30,7 17,0 11 6 NNE 1017,2 -
10.08.2018 17:00:00 31,6 18,2 13 7 NNE 1016,9 -
10.08.2018 16:00:00 33,0 19,5 9 5 N 1016,8 -
10.08.2018 15:00:00 31,7 18,6 8 4 WNW 1017,5 -
10.08.2018 14:00:00 33,0 19,8 9 5 WNW 1017,2 0,0
10.08.2018 13:00:00 32,5 19,0 5 3 N 1017,6 -
10.08.2018 12:00:00 31,8 17,3 4 2 NNE 1018,2 -
10.08.2018 11:00:00 30,7 18,1 4 2 S 1018,2 -
10.08.2018 10:00:00 29,2 17,7 9 5 NE 1018,2 -
10.08.2018 09:00:00 26,9 18,7 11 6 NE 1018,6 -
10.08.2018 08:00:00 24,7 17,6 13 7 NE 1018,5 0,0
10.08.2018 07:00:00 22,6 17,9 13 7 NE 1018,6 -
10.08.2018 06:00:00 23,0 16,9 11 6 NNE 1018,3 -
10.08.2018 05:00:00 22,6 17,7 11 6 N 1018,2 -
10.08.2018 04:00:00 22,0 17,3 9 5 N 1018,3 -
10.08.2018 03:00:00 21,6 17,5 5 3 N 1018,6 -
10.08.2018 02:00:00 21,8 18,1 4 2 N 1018,5 0,0
10.08.2018 01:00:00 21,0 17,7 4 2 N 1018,6 -
10.08.2018 00:00:00 21,3 18,0 4 2 NNW 1018,4 -
09.08.2018 23:00:00 21,6 17,5 2 1 NW 1017,9 -
09.08.2018 22:00:00 22,5 18,4 2 1 WNW 1017,9 -
09.08.2018 21:00:00 23,2 18,5 2 1 ENE 1017,5 -
09.08.2018 20:00:00 25,7 20,4 4 2 ENE 1016,4 -
09.08.2018 19:00:00 27,9 20,7 2 1 ESE 1015,8 -
09.08.2018 18:00:00 28,9 20,8 4 2 N 1015,4 -
09.08.2018 17:00:00 27,2 24,6 2 1 ENE 1016,1 -
09.08.2018 16:00:00 22,4 20,8 8 4 NE 1017,0 -
09.08.2018 15:00:00 26,2 15,5 18 10 NE 1016,9 -
09.08.2018 14:00:00 33,1 20,9 9 5 SSW 1015,4 0,0
09.08.2018 13:00:00 31,4 19,0 5 3 NW 1016,0 -
09.08.2018 12:00:00 30,6 19,0 5 3 S 1016,2 -
09.08.2018 11:00:00 29,8 18,5 4 2 SW 1016,5 -
09.08.2018 10:00:00 29,0 18,7 5 3 S 1016,4 -
09.08.2018 09:00:00 28,6 20,6 2 1 ENE 1016,3 -
09.08.2018 08:00:00 25,4 20,4 8 4 NE 1016,5 0,0
09.08.2018 07:00:00 23,6 16,1 9 5 ENE 1016,3 -
09.08.2018 06:00:00 22,7 14,7 11 6 NE 1016,3 -
09.08.2018 05:00:00 22,1 16,5 13 7 NE 1016,1 -
09.08.2018 04:00:00 22,3 16,0 11 6 NE 1016,0 -
09.08.2018 03:00:00 22,9 15,6 9 5 NE 1015,8 -
09.08.2018 02:00:00 22,8 14,3 9 5 NNE 1016,1 0,0
09.08.2018 01:00:00 21,6 14,7 5 3 N 1016,8 -
09.08.2018 00:00:00 21,1 12,7 2 1 ENE 1016,8 -
08.08.2018 23:00:00 20,9 15,6 2 1 N 1016,7 -
08.08.2018 22:00:00 21,5 15,9 0 0 N 1016,6 -
08.08.2018 21:00:00 23,1 16,6 4 2 WSW 1016,1 -
08.08.2018 20:00:00 25,8 16,8 4 2 SW 1015,2 0,0
08.08.2018 19:00:00 28,8 17,6 8 4 SW 1014,4 -
08.08.2018 18:00:00 30,8 17,8 9 5 W 1014,0 -
08.08.2018 17:00:00 31,7 18,3 8 4 SSW 1014,0 -
08.08.2018 16:00:00 32,2 18,4 9 5 SSW 1014,4 -
08.08.2018 15:00:00 32,8 19,6 11 6 SSW 1014,5 -

tt = Température de l'air
td = dewpoint
ff = Vitesse du vent
dd = Direction du vent
ppp = reduced air pressure
rr = Quantités de précipitations

stations d'obs. à proximité